sensor_id;sensor_type;location;lat;lon;timestamp;pressure;altitude;pressure_sealevel;temperature;humidity
75401;BME280;63974;47.538;18.972;2023-03-14T00:00:57;99606.34;;;5.88;65.25
75401;BME280;63974;47.538;18.972;2023-03-14T00:04:00;99605.81;;;5.77;65.44
75401;BME280;63974;47.538;18.972;2023-03-14T00:07:03;99602.34;;;5.86;66.06
75401;BME280;63974;47.538;18.972;2023-03-14T00:10:09;99600.97;;;5.74;65.74
75401;BME280;63974;47.538;18.972;2023-03-14T00:13:13;99595.66;;;5.75;66.07
75401;BME280;63974;47.538;18.972;2023-03-14T00:16:16;99591.47;;;5.74;66.37
75401;BME280;63974;47.538;18.972;2023-03-14T00:19:18;99588.97;;;5.57;66.47
75401;BME280;63974;47.538;18.972;2023-03-14T00:22:21;99596.28;;;5.69;66.53
75401;BME280;63974;47.538;18.972;2023-03-14T00:25:24;99594.66;;;5.68;66.90
75401;BME280;63974;47.538;18.972;2023-03-14T00:28:28;99594.50;;;5.70;66.85
75401;BME280;63974;47.538;18.972;2023-03-14T00:31:31;99592.94;;;5.77;65.99
75401;BME280;63974;47.538;18.972;2023-03-14T00:34:33;99588.56;;;5.69;66.42
75401;BME280;63974;47.538;18.972;2023-03-14T00:37:36;99586.13;;;5.68;66.67
75401;BME280;63974;47.538;18.972;2023-03-14T00:40:41;99578.75;;;5.73;66.26
75401;BME280;63974;47.538;18.972;2023-03-14T00:43:45;99576.75;;;5.59;66.88
75401;BME280;63974;47.538;18.972;2023-03-14T00:46:48;99573.88;;;5.62;66.96
75401;BME280;63974;47.538;18.972;2023-03-14T00:49:51;99577.41;;;5.61;66.62
75401;BME280;63974;47.538;18.972;2023-03-14T00:52:54;99578.56;;;5.66;66.29
75401;BME280;63974;47.538;18.972;2023-03-14T00:56:03;99578.41;;;5.68;65.81
75401;BME280;63974;47.538;18.972;2023-03-14T00:59:07;99574.72;;;5.70;66.63
75401;BME280;63974;47.538;18.972;2023-03-14T01:02:09;99575.03;;;5.67;66.75
75401;BME280;63974;47.538;18.972;2023-03-14T01:05:12;99569.19;;;5.57;66.91
75401;BME280;63974;47.538;18.972;2023-03-14T01:08:17;99558.53;;;5.52;66.93
75401;BME280;63974;47.538;18.972;2023-03-14T01:11:31;99557.28;;;5.64;67.25
75401;BME280;63974;47.538;18.972;2023-03-14T01:14:34;99551.16;;;5.57;66.74
75401;BME280;63974;47.538;18.972;2023-03-14T01:17:39;99552.81;;;5.66;66.67
75401;BME280;63974;47.538;18.972;2023-03-14T01:20:42;99542.19;;;5.69;66.79
75401;BME280;63974;47.538;18.972;2023-03-14T01:23:46;99533.19;;;5.73;66.91
75401;BME280;63974;47.538;18.972;2023-03-14T01:26:49;99529.66;;;5.74;66.83
75401;BME280;63974;47.538;18.972;2023-03-14T01:29:52;99529.47;;;5.60;67.55
75401;BME280;63974;47.538;18.972;2023-03-14T01:32:55;99522.72;;;5.67;67.47
75401;BME280;63974;47.538;18.972;2023-03-14T01:35:58;99518.91;;;5.79;67.16
75401;BME280;63974;47.538;18.972;2023-03-14T01:39:02;99511.72;;;5.90;66.96
75401;BME280;63974;47.538;18.972;2023-03-14T01:42:06;99508.97;;;5.92;66.83
75401;BME280;63974;47.538;18.972;2023-03-14T01:49:33;99500.91;;;5.87;67.05
75401;BME280;63974;47.538;18.972;2023-03-14T01:52:45;99491.25;;;5.89;67.19
75401;BME280;63974;47.538;18.972;2023-03-14T01:55:50;99489.31;;;5.91;66.96
75401;BME280;63974;47.538;18.972;2023-03-14T01:58:55;99494.50;;;5.99;66.80
75401;BME280;63974;47.538;18.972;2023-03-14T02:01:58;99499.31;;;6.02;66.68
75401;BME280;63974;47.538;18.972;2023-03-14T02:05:05;99489.19;;;6.16;66.38
75401;BME280;63974;47.538;18.972;2023-03-14T02:08:13;99494.66;;;6.21;66.16
75401;BME280;63974;47.538;18.972;2023-03-14T02:11:28;99483.22;;;6.32;65.82
75401;BME280;63974;47.538;18.972;2023-03-14T02:14:39;99472.91;;;6.40;65.52
75401;BME280;63974;47.538;18.972;2023-03-14T02:18:06;99472.09;;;6.47;65.66
75401;BME280;63974;47.538;18.972;2023-03-14T02:28:34;99452.59;;;6.60;65.38
75401;BME280;63974;47.538;18.972;2023-03-14T02:31:38;99452.06;;;6.73;64.48
75401;BME280;63974;47.538;18.972;2023-03-14T02:34:43;99457.69;;;6.84;64.30
75401;BME280;63974;47.538;18.972;2023-03-14T02:38:04;99455.91;;;6.85;64.22
75401;BME280;63974;47.538;18.972;2023-03-14T02:41:14;99447.84;;;6.88;64.22
75401;BME280;63974;47.538;18.972;2023-03-14T02:44:23;99444.63;;;6.86;63.93
75401;BME280;63974;47.538;18.972;2023-03-14T02:47:29;99443.81;;;6.85;64.33
75401;BME280;63974;47.538;18.972;2023-03-14T02:50:33;99443.97;;;6.84;64.24
75401;BME280;63974;47.538;18.972;2023-03-14T02:53:37;99428.00;;;6.88;64.16
75401;BME280;63974;47.538;18.972;2023-03-14T02:56:45;99419.28;;;6.89;64.09
75401;BME280;63974;47.538;18.972;2023-03-14T02:59:48;99427.50;;;6.93;63.64
75401;BME280;63974;47.538;18.972;2023-03-14T03:02:54;99418.47;;;6.97;63.87
75401;BME280;63974;47.538;18.972;2023-03-14T03:05:57;99412.03;;;6.93;63.42
75401;BME280;63974;47.538;18.972;2023-03-14T03:09:00;99412.53;;;6.88;63.84
75401;BME280;63974;47.538;18.972;2023-03-14T03:12:03;99398.66;;;6.89;63.97
75401;BME280;63974;47.538;18.972;2023-03-14T03:15:07;99411.53;;;6.97;63.32
75401;BME280;63974;47.538;18.972;2023-03-14T03:18:12;99405.19;;;7.08;62.65
75401;BME280;63974;47.538;18.972;2023-03-14T03:21:15;99407.75;;;7.16;62.69
75401;BME280;63974;47.538;18.972;2023-03-14T03:24:18;99403.56;;;7.15;62.35
75401;BME280;63974;47.538;18.972;2023-03-14T03:27:21;99397.56;;;7.14;62.16
75401;BME280;63974;47.538;18.972;2023-03-14T03:30:24;99388.53;;;7.18;62.35
75401;BME280;63974;47.538;18.972;2023-03-14T03:33:27;99377.91;;;7.13;62.37
75401;BME280;63974;47.538;18.972;2023-03-14T03:36:31;99375.63;;;7.18;62.03
75401;BME280;63974;47.538;18.972;2023-03-14T03:39:34;99368.69;;;7.19;61.52
75401;BME280;63974;47.538;18.972;2023-03-14T03:42:38;99380.22;;;7.31;61.74
75401;BME280;63974;47.538;18.972;2023-03-14T03:45:44;99381.50;;;7.35;61.04
75401;BME280;63974;47.538;18.972;2023-03-14T03:48:47;99382.03;;;7.30;61.44
75401;BME280;63974;47.538;18.972;2023-03-14T03:51:50;99378.00;;;7.28;61.41
75401;BME280;63974;47.538;18.972;2023-03-14T03:54:52;99386.03;;;7.33;61.45
75401;BME280;63974;47.538;18.972;2023-03-14T03:57:55;99373.63;;;7.28;61.60
75401;BME280;63974;47.538;18.972;2023-03-14T04:00:59;99368.66;;;7.27;61.60
75401;BME280;63974;47.538;18.972;2023-03-14T04:04:02;99368.28;;;7.30;61.63
75401;BME280;63974;47.538;18.972;2023-03-14T04:07:06;99351.47;;;7.34;61.39
75401;BME280;63974;47.538;18.972;2023-03-14T04:10:09;99345.06;;;7.30;61.43
75401;BME280;63974;47.538;18.972;2023-03-14T04:13:17;99346.66;;;7.31;61.33
75401;BME280;63974;47.538;18.972;2023-03-14T04:16:25;99342.31;;;7.31;61.32
75401;BME280;63974;47.538;18.972;2023-03-14T04:19:35;99337.78;;;7.33;61.79
75401;BME280;63974;47.538;18.972;2023-03-14T04:22:39;99324.56;;;7.28;61.67
75401;BME280;63974;47.538;18.972;2023-03-14T04:25:45;99327.09;;;7.36;61.42
75401;BME280;63974;47.538;18.972;2023-03-14T04:28:49;99314.72;;;7.32;61.54
75401;BME280;63974;47.538;18.972;2023-03-14T04:31:52;99312.31;;;7.30;61.84
75401;BME280;63974;47.538;18.972;2023-03-14T04:34:54;99313.25;;;7.29;61.78
75401;BME280;63974;47.538;18.972;2023-03-14T04:37:58;99303.13;;;7.28;61.49
75401;BME280;63974;47.538;18.972;2023-03-14T04:41:02;99313.09;;;7.31;61.61
75401;BME280;63974;47.538;18.972;2023-03-14T04:44:07;99315.53;;;7.32;61.13
75401;BME280;63974;47.538;18.972;2023-03-14T04:47:10;99298.19;;;7.41;60.41
75401;BME280;63974;47.538;18.972;2023-03-14T04:50:16;99310.47;;;7.39;60.93
75401;BME280;63974;47.538;18.972;2023-03-14T04:53:20;99297.22;;;7.42;60.96
75401;BME280;63974;47.538;18.972;2023-03-14T04:56:25;99309.19;;;7.35;61.26
75401;BME280;63974;47.538;18.972;2023-03-14T04:59:30;99289.69;;;7.32;61.69
75401;BME280;63974;47.538;18.972;2023-03-14T05:02:39;99291.81;;;7.29;61.83
75401;BME280;63974;47.538;18.972;2023-03-14T05:06:05;99284.22;;;7.27;61.22
75401;BME280;63974;47.538;18.972;2023-03-14T05:09:27;99288.09;;;7.31;61.08
75401;BME280;63974;47.538;18.972;2023-03-14T05:12:56;99293.53;;;7.36;60.47
75401;BME280;63974;47.538;18.972;2023-03-14T05:16:17;99289.72;;;7.47;59.76
75401;BME280;63974;47.538;18.972;2023-03-14T05:19:41;99281.56;;;7.58;59.42
75401;BME280;63974;47.538;18.972;2023-03-14T05:23:02;99277.97;;;7.67;58.01
75401;BME280;63974;47.538;18.972;2023-03-14T05:26:22;99287.72;;;7.79;57.69
75401;BME280;63974;47.538;18.972;2023-03-14T05:29:55;99292.97;;;7.86;57.52
75401;BME280;63974;47.538;18.972;2023-03-14T05:33:24;99296.81;;;7.90;57.25
75401;BME280;63974;47.538;18.972;2023-03-14T05:36:46;99289.06;;;7.90;57.44
75401;BME280;63974;47.538;18.972;2023-03-14T05:40:09;99290.03;;;7.89;57.27
75401;BME280;63974;47.538;18.972;2023-03-14T05:43:31;99281.56;;;7.95;57.08
75401;BME280;63974;47.538;18.972;2023-03-14T05:47:00;99285.41;;;7.99;57.00
75401;BME280;63974;47.538;18.972;2023-03-14T05:50:29;99281.75;;;7.93;57.53
75401;BME280;63974;47.538;18.972;2023-03-14T05:53:46;99269.56;;;8.02;57.33
75401;BME280;63974;47.538;18.972;2023-03-14T05:56:51;99275.34;;;8.04;56.94
75401;BME280;63974;47.538;18.972;2023-03-14T06:00:10;99288.09;;;8.05;57.06
75401;BME280;63974;47.538;18.972;2023-03-14T06:03:26;99289.50;;;8.08;56.81
75401;BME280;63974;47.538;18.972;2023-03-14T06:06:29;99290.94;;;8.10;56.96
75401;BME280;63974;47.538;18.972;2023-03-14T06:09:34;99285.31;;;8.07;57.24
75401;BME280;63974;47.538;18.972;2023-03-14T06:12:37;99283.34;;;8.09;57.06
75401;BME280;63974;47.538;18.972;2023-03-14T06:15:41;99281.41;;;8.11;57.45
75401;BME280;63974;47.538;18.972;2023-03-14T06:18:44;99276.78;;;8.06;57.72
75401;BME280;63974;47.538;18.972;2023-03-14T06:21:50;99276.06;;;7.98;57.64
75401;BME280;63974;47.538;18.972;2023-03-14T06:24:53;99275.69;;;8.01;58.15
75401;BME280;63974;47.538;18.972;2023-03-14T06:27:56;99274.88;;;8.00;58.39
75401;BME280;63974;47.538;18.972;2023-03-14T06:31:01;99282.47;;;8.02;58.11
75401;BME280;63974;47.538;18.972;2023-03-14T06:34:10;99288.09;;;8.05;58.22
75401;BME280;63974;47.538;18.972;2023-03-14T06:37:14;99285.94;;;8.09;58.27
75401;BME280;63974;47.538;18.972;2023-03-14T06:40:19;99290.78;;;8.12;58.45
75401;BME280;63974;47.538;18.972;2023-03-14T06:43:31;99283.47;;;8.15;58.17
75401;BME280;63974;47.538;18.972;2023-03-14T06:46:33;99288.31;;;8.18;57.91
75401;BME280;63974;47.538;18.972;2023-03-14T06:49:36;99288.56;;;8.23;57.75
75401;BME280;63974;47.538;18.972;2023-03-14T06:52:39;99297.59;;;8.42;57.29
75401;BME280;63974;47.538;18.972;2023-03-14T06:55:51;99290.34;;;8.52;56.97
75401;BME280;63974;47.538;18.972;2023-03-14T06:58:55;99289.69;;;8.78;55.95
75401;BME280;63974;47.538;18.972;2023-03-14T07:02:00;99287.88;;;8.93;55.80
75401;BME280;63974;47.538;18.972;2023-03-14T07:05:03;99286.84;;;9.09;55.13
75401;BME280;63974;47.538;18.972;2023-03-14T07:08:08;99274.78;;;9.37;54.10
75401;BME280;63974;47.538;18.972;2023-03-14T07:11:11;99272.00;;;9.59;53.19
75401;BME280;63974;47.538;18.972;2023-03-14T07:14:14;99276.25;;;9.94;52.41
75401;BME280;63974;47.538;18.972;2023-03-14T07:17:18;99269.44;;;10.21;52.32
75401;BME280;63974;47.538;18.972;2023-03-14T07:20:21;99263.00;;;10.44;50.85
75401;BME280;63974;47.538;18.972;2023-03-14T07:23:24;99258.75;;;10.77;49.80
75401;BME280;63974;47.538;18.972;2023-03-14T07:26:29;99249.03;;;10.99;49.49
75401;BME280;63974;47.538;18.972;2023-03-14T07:29:32;99259.88;;;11.34;49.05
75401;BME280;63974;47.538;18.972;2023-03-14T07:32:38;99255.72;;;11.59;47.78
75401;BME280;63974;47.538;18.972;2023-03-14T07:35:41;99255.13;;;11.57;47.60
75401;BME280;63974;47.538;18.972;2023-03-14T07:38:44;99252.31;;;11.78;46.51
75401;BME280;63974;47.538;18.972;2023-03-14T07:41:54;99245.09;;;11.67;46.22
75401;BME280;63974;47.538;18.972;2023-03-14T07:45:17;99245.06;;;12.19;45.69
75401;BME280;63974;47.538;18.972;2023-03-14T07:48:20;99236.88;;;12.03;45.74
75401;BME280;63974;47.538;18.972;2023-03-14T07:51:24;99240.47;;;12.15;45.66
75401;BME280;63974;47.538;18.972;2023-03-14T07:54:27;99242.44;;;12.19;46.07
75401;BME280;63974;47.538;18.972;2023-03-14T07:57:30;99239.41;;;12.29;46.15
75401;BME280;63974;47.538;18.972;2023-03-14T08:00:33;99230.19;;;12.26;46.09
75401;BME280;63974;47.538;18.972;2023-03-14T08:03:36;99220.47;;;12.02;47.25
75401;BME280;63974;47.538;18.972;2023-03-14T08:06:39;99237.75;;;12.47;47.49
75401;BME280;63974;47.538;18.972;2023-03-14T08:09:42;99227.47;;;12.59;47.08
75401;BME280;63974;47.538;18.972;2023-03-14T08:12:45;99232.06;;;12.63;46.85
75401;BME280;63974;47.538;18.972;2023-03-14T08:15:48;99223.25;;;12.64;46.30
75401;BME280;63974;47.538;18.972;2023-03-14T08:18:51;99218.19;;;12.76;46.22
75401;BME280;63974;47.538;18.972;2023-03-14T08:21:54;99216.13;;;12.84;46.35
75401;BME280;63974;47.538;18.972;2023-03-14T08:24:57;99206.88;;;12.95;46.73
75401;BME280;63974;47.538;18.972;2023-03-14T08:28:00;99210.22;;;13.08;46.30
75401;BME280;63974;47.538;18.972;2023-03-14T08:31:03;99215.50;;;12.95;47.13
75401;BME280;63974;47.538;18.972;2023-03-14T08:34:06;99197.09;;;13.21;46.90
75401;BME280;63974;47.538;18.972;2023-03-14T08:37:09;99203.22;;;13.33;46.67
75401;BME280;63974;47.538;18.972;2023-03-14T08:40:27;99210.38;;;13.86;44.02
75401;BME280;63974;47.538;18.972;2023-03-14T08:43:30;99214.53;;;14.12;43.38
75401;BME280;63974;47.538;18.972;2023-03-14T08:46:33;99213.72;;;14.11;43.98
75401;BME280;63974;47.538;18.972;2023-03-14T08:49:36;99206.25;;;13.97;43.68
75401;BME280;63974;47.538;18.972;2023-03-14T08:52:39;99202.09;;;13.71;43.64
75401;BME280;63974;47.538;18.972;2023-03-14T08:55:43;99215.13;;;13.71;44.26
75401;BME280;63974;47.538;18.972;2023-03-14T08:58:46;99196.63;;;13.73;44.76
75401;BME280;63974;47.538;18.972;2023-03-14T09:01:49;99197.00;;;13.76;44.21
75401;BME280;63974;47.538;18.972;2023-03-14T09:04:53;99203.44;;;13.74;43.69
75401;BME280;63974;47.538;18.972;2023-03-14T09:07:55;99191.66;;;13.89;43.57
75401;BME280;63974;47.538;18.972;2023-03-14T09:10:59;99187.19;;;13.96;43.59
75401;BME280;63974;47.538;18.972;2023-03-14T09:14:01;99181.88;;;13.85;44.06
75401;BME280;63974;47.538;18.972;2023-03-14T09:17:04;99167.09;;;13.79;43.88
75401;BME280;63974;47.538;18.972;2023-03-14T09:20:08;99165.09;;;13.99;44.48
75401;BME280;63974;47.538;18.972;2023-03-14T09:23:11;99125.22;;;13.92;44.17
75401;BME280;63974;47.538;18.972;2023-03-14T09:26:14;99142.41;;;14.17;44.84
75401;BME280;63974;47.538;18.972;2023-03-14T09:29:17;99136.22;;;14.30;44.27
75401;BME280;63974;47.538;18.972;2023-03-14T09:32:20;99125.66;;;14.25;44.44
75401;BME280;63974;47.538;18.972;2023-03-14T09:35:23;99128.47;;;14.53;43.12
75401;BME280;63974;47.538;18.972;2023-03-14T09:38:26;99120.69;;;14.64;43.44
75401;BME280;63974;47.538;18.972;2023-03-14T09:41:33;99125.75;;;14.89;43.66
75401;BME280;63974;47.538;18.972;2023-03-14T09:44:39;99125.13;;;15.16;43.45
75401;BME280;63974;47.538;18.972;2023-03-14T09:47:47;99117.88;;;15.41;42.33
75401;BME280;63974;47.538;18.972;2023-03-14T09:51:05;99116.84;;;15.31;41.95
75401;BME280;63974;47.538;18.972;2023-03-14T09:54:23;99108.78;;;15.32;42.02
75401;BME280;63974;47.538;18.972;2023-03-14T09:57:29;99105.03;;;15.51;41.78
75401;BME280;63974;47.538;18.972;2023-03-14T10:00:35;99101.94;;;15.77;41.04
75401;BME280;63974;47.538;18.972;2023-03-14T10:03:39;99098.38;;;15.94;40.10
75401;BME280;63974;47.538;18.972;2023-03-14T10:06:43;99085.47;;;16.32;40.26
75401;BME280;63974;47.538;18.972;2023-03-14T10:09:48;99073.97;;;16.33;39.11
75401;BME280;63974;47.538;18.972;2023-03-14T10:12:59;99065.44;;;16.38;37.92
75401;BME280;63974;47.538;18.972;2023-03-14T10:16:09;99063.22;;;16.46;38.31
75401;BME280;63974;47.538;18.972;2023-03-14T10:19:16;99055.00;;;16.54;37.13
75401;BME280;63974;47.538;18.972;2023-03-14T10:22:21;99049.75;;;16.71;38.16
75401;BME280;63974;47.538;18.972;2023-03-14T10:25:32;99051.50;;;16.82;37.25
75401;BME280;63974;47.538;18.972;2023-03-14T10:29:02;99047.28;;;16.97;38.13
75401;BME280;63974;47.538;18.972;2023-03-14T10:32:10;99042.41;;;17.22;39.38
75401;BME280;63974;47.538;18.972;2023-03-14T10:35:22;99025.56;;;17.18;40.58
75401;BME280;63974;47.538;18.972;2023-03-14T10:38:28;99014.53;;;17.16;39.18
75401;BME280;63974;47.538;18.972;2023-03-14T10:41:32;99002.97;;;17.34;39.68
75401;BME280;63974;47.538;18.972;2023-03-14T10:44:36;98990.59;;;17.51;39.47
75401;BME280;63974;47.538;18.972;2023-03-14T10:47:48;98973.47;;;17.43;39.32
75401;BME280;63974;47.538;18.972;2023-03-14T10:54:22;98961.50;;;17.52;38.61
75401;BME280;63974;47.538;18.972;2023-03-14T10:57:38;98949.56;;;17.45;37.94
75401;BME280;63974;47.538;18.972;2023-03-14T11:00:42;98944.91;;;17.47;37.51
75401;BME280;63974;47.538;18.972;2023-03-14T11:03:54;98961.69;;;17.72;37.01
75401;BME280;63974;47.538;18.972;2023-03-14T11:13:25;98956.16;;;17.95;34.63
75401;BME280;63974;47.538;18.972;2023-03-14T11:23:51;98943.56;;;18.23;35.97
75401;BME280;63974;47.538;18.972;2023-03-14T11:30:29;98925.38;;;18.43;34.62
75401;BME280;63974;47.538;18.972;2023-03-14T11:37:17;98911.78;;;18.56;35.18
75401;BME280;63974;47.538;18.972;2023-03-14T11:40:24;98919.50;;;18.73;32.95
75401;BME280;63974;47.538;18.972;2023-03-14T11:43:33;98907.75;;;18.80;33.64
75401;BME280;63974;47.538;18.972;2023-03-14T11:46:43;98896.06;;;19.13;35.23
75401;BME280;63974;47.538;18.972;2023-03-14T11:49:50;98892.66;;;18.66;34.92
75401;BME280;63974;47.538;18.972;2023-03-14T11:56:53;98868.59;;;18.89;32.28
75401;BME280;63974;47.538;18.972;2023-03-14T12:00:22;98859.94;;;18.93;33.07
75401;BME280;63974;47.538;18.972;2023-03-14T12:07:40;98845.78;;;19.04;33.82
75401;BME280;63974;47.538;18.972;2023-03-14T12:10:45;98836.53;;;19.02;33.40
75401;BME280;63974;47.538;18.972;2023-03-14T12:13:51;98840.75;;;19.03;33.85
75401;BME280;63974;47.538;18.972;2023-03-14T12:17:04;98835.25;;;19.09;33.03
75401;BME280;63974;47.538;18.972;2023-03-14T12:20:19;98829.47;;;19.07;32.17
75401;BME280;63974;47.538;18.972;2023-03-14T12:23:24;98830.00;;;19.09;33.11
75401;BME280;63974;47.538;18.972;2023-03-14T12:26:52;98819.75;;;19.13;31.85
75401;BME280;63974;47.538;18.972;2023-03-14T12:29:59;98813.78;;;19.32;30.88
75401;BME280;63974;47.538;18.972;2023-03-14T12:36:21;98809.59;;;19.96;30.56
75401;BME280;63974;47.538;18.972;2023-03-14T12:43:28;98792.75;;;20.02;29.91
75401;BME280;63974;47.538;18.972;2023-03-14T12:46:31;98788.53;;;20.01;30.43
75401;BME280;63974;47.538;18.972;2023-03-14T12:49:35;98773.25;;;19.83;30.57
75401;BME280;63974;47.538;18.972;2023-03-14T12:56:20;98790.13;;;20.17;29.79
75401;BME280;63974;47.538;18.972;2023-03-14T12:59:38;98790.13;;;19.77;29.62
75401;BME280;63974;47.538;18.972;2023-03-14T13:02:49;98788.53;;;19.86;30.10
75401;BME280;63974;47.538;18.972;2023-03-14T13:05:57;98778.50;;;19.48;30.88
75401;BME280;63974;47.538;18.972;2023-03-14T13:12:48;98776.81;;;18.97;31.81
75401;BME280;63974;47.538;18.972;2023-03-14T13:15:59;98775.72;;;18.88;32.14
75401;BME280;63974;47.538;18.972;2023-03-14T13:19:26;98768.06;;;18.77;32.87
75401;BME280;63974;47.538;18.972;2023-03-14T13:22:32;98765.38;;;18.62;32.88
75401;BME280;63974;47.538;18.972;2023-03-14T13:25:36;98756.34;;;18.38;33.70
75401;BME280;63974;47.538;18.972;2023-03-14T13:28:39;98759.22;;;18.36;34.16
75401;BME280;63974;47.538;18.972;2023-03-14T13:31:45;98756.81;;;18.35;34.07
75401;BME280;63974;47.538;18.972;2023-03-14T13:34:48;98759.47;;;18.35;33.67
75401;BME280;63974;47.538;18.972;2023-03-14T13:38:01;98759.56;;;18.55;33.11
75401;BME280;63974;47.538;18.972;2023-03-14T13:41:13;98767.16;;;18.51;33.33
75401;BME280;63974;47.538;18.972;2023-03-14T13:44:22;98754.19;;;18.30;34.14
75401;BME280;63974;47.538;18.972;2023-03-14T13:47:27;98761.31;;;18.34;34.08
75401;BME280;63974;47.538;18.972;2023-03-14T13:50:30;98754.78;;;18.42;33.92
75401;BME280;63974;47.538;18.972;2023-03-14T13:53:45;98747.00;;;18.62;34.12
75401;BME280;63974;47.538;18.972;2023-03-14T13:56:49;98739.38;;;18.70;33.93
75401;BME280;63974;47.538;18.972;2023-03-14T14:00:04;98737.28;;;18.72;33.92
75401;BME280;63974;47.538;18.972;2023-03-14T14:03:11;98735.91;;;18.55;34.16
75401;BME280;63974;47.538;18.972;2023-03-14T14:06:27;98739.00;;;18.42;34.78
75401;BME280;63974;47.538;18.972;2023-03-14T14:09:37;98722.28;;;18.16;34.80
75401;BME280;63974;47.538;18.972;2023-03-14T14:12:46;98729.69;;;18.19;35.14
75401;BME280;63974;47.538;18.972;2023-03-14T14:15:53;98722.56;;;18.15;36.06
75401;BME280;63974;47.538;18.972;2023-03-14T14:18:58;98718.31;;;18.09;35.66
75401;BME280;63974;47.538;18.972;2023-03-14T14:22:02;98713.34;;;18.12;35.99
75401;BME280;63974;47.538;18.972;2023-03-14T14:25:06;98710.72;;;18.17;36.25
75401;BME280;63974;47.538;18.972;2023-03-14T14:28:32;98708.47;;;18.31;36.28
75401;BME280;63974;47.538;18.972;2023-03-14T14:31:35;98696.44;;;18.45;36.79
75401;BME280;63974;47.538;18.972;2023-03-14T14:34:46;98701.50;;;18.66;36.72
75401;BME280;63974;47.538;18.972;2023-03-14T14:37:58;98691.78;;;18.62;36.70
75401;BME280;63974;47.538;18.972;2023-03-14T14:41:02;98688.34;;;18.56;37.02
75401;BME280;63974;47.538;18.972;2023-03-14T14:44:06;98675.97;;;18.57;37.34
75401;BME280;63974;47.538;18.972;2023-03-14T14:47:14;98672.31;;;18.63;36.53
75401;BME280;63974;47.538;18.972;2023-03-14T14:53:59;98665.16;;;18.53;35.81
75401;BME280;63974;47.538;18.972;2023-03-14T14:57:05;98653.81;;;18.33;36.30
75401;BME280;63974;47.538;18.972;2023-03-14T15:00:18;98669.72;;;18.07;36.81
75401;BME280;63974;47.538;18.972;2023-03-14T15:03:21;98660.44;;;17.89;37.90
75401;BME280;63974;47.538;18.972;2023-03-14T15:06:27;98653.03;;;17.81;37.96
75401;BME280;63974;47.538;18.972;2023-03-14T15:09:30;98652.72;;;17.73;38.08
75401;BME280;63974;47.538;18.972;2023-03-14T15:12:33;98650.03;;;17.68;37.47
75401;BME280;63974;47.538;18.972;2023-03-14T15:15:36;98643.44;;;17.60;37.24
75401;BME280;63974;47.538;18.972;2023-03-14T15:18:39;98648.91;;;17.54;37.94
75401;BME280;63974;47.538;18.972;2023-03-14T15:21:42;98640.72;;;17.45;38.24
75401;BME280;63974;47.538;18.972;2023-03-14T15:24:45;98649.06;;;17.37;38.78
75401;BME280;63974;47.538;18.972;2023-03-14T15:27:47;98636.63;;;17.28;38.96
75401;BME280;63974;47.538;18.972;2023-03-14T15:30:54;98648.69;;;17.24;39.15
75401;BME280;63974;47.538;18.972;2023-03-14T15:33:57;98645.22;;;17.18;39.13
75401;BME280;63974;47.538;18.972;2023-03-14T15:37:00;98652.78;;;17.15;38.91
75401;BME280;63974;47.538;18.972;2023-03-14T15:40:05;98644.59;;;17.06;39.38
75401;BME280;63974;47.538;18.972;2023-03-14T15:43:16;98652.34;;;16.91;39.06
75401;BME280;63974;47.538;18.972;2023-03-14T15:46:20;98645.22;;;16.87;41.00
75401;BME280;63974;47.538;18.972;2023-03-14T15:49:24;98648.28;;;16.79;43.86
75401;BME280;63974;47.538;18.972;2023-03-14T15:52:27;98645.03;;;16.72;44.25
75401;BME280;63974;47.538;18.972;2023-03-14T15:55:29;98643.81;;;16.53;44.83
75401;BME280;63974;47.538;18.972;2023-03-14T15:58:33;98646.38;;;16.48;45.65
75401;BME280;63974;47.538;18.972;2023-03-14T16:01:36;98646.97;;;16.33;46.29
75401;BME280;63974;47.538;18.972;2023-03-14T16:04:39;98645.09;;;16.29;45.34
75401;BME280;63974;47.538;18.972;2023-03-14T16:07:42;98644.56;;;16.27;46.32
75401;BME280;63974;47.538;18.972;2023-03-14T16:10:45;98638.09;;;16.13;46.48
75401;BME280;63974;47.538;18.972;2023-03-14T16:13:49;98627.16;;;15.94;46.68
75401;BME280;63974;47.538;18.972;2023-03-14T16:16:52;98633.88;;;15.90;46.35
75401;BME280;63974;47.538;18.972;2023-03-14T16:19:57;98638.50;;;15.83;47.50
75401;BME280;63974;47.538;18.972;2023-03-14T16:23:00;98643.41;;;15.59;53.59
75401;BME280;63974;47.538;18.972;2023-03-14T16:26:08;98645.59;;;15.50;52.20
75401;BME280;63974;47.538;18.972;2023-03-14T16:29:11;98638.19;;;15.42;51.43
75401;BME280;63974;47.538;18.972;2023-03-14T16:32:14;98632.00;;;15.32;50.93
75401;BME280;63974;47.538;18.972;2023-03-14T16:35:17;98637.22;;;15.32;48.87
75401;BME280;63974;47.538;18.972;2023-03-14T16:38:20;98641.81;;;15.25;50.83
75401;BME280;63974;47.538;18.972;2023-03-14T16:41:23;98629.59;;;15.14;50.30
75401;BME280;63974;47.538;18.972;2023-03-14T16:44:26;98642.03;;;15.23;49.52
75401;BME280;63974;47.538;18.972;2023-03-14T16:47:29;98641.66;;;15.15;51.20
75401;BME280;63974;47.538;18.972;2023-03-14T16:50:34;98646.38;;;15.01;52.65
75401;BME280;63974;47.538;18.972;2023-03-14T16:53:38;98647.97;;;14.86;55.50
75401;BME280;63974;47.538;18.972;2023-03-14T16:56:41;98654.03;;;14.75;55.53
75401;BME280;63974;47.538;18.972;2023-03-14T16:59:43;98653.84;;;14.65;56.93
75401;BME280;63974;47.538;18.972;2023-03-14T17:02:46;98657.84;;;14.56;57.71
75401;BME280;63974;47.538;18.972;2023-03-14T17:05:51;98646.94;;;14.59;57.54
75401;BME280;63974;47.538;18.972;2023-03-14T17:08:55;98651.75;;;14.50;54.43
75401;BME280;63974;47.538;18.972;2023-03-14T17:11:58;98656.56;;;14.42;54.12
75401;BME280;63974;47.538;18.972;2023-03-14T17:15:01;98658.59;;;14.40;54.24
75401;BME280;63974;47.538;18.972;2023-03-14T17:18:05;98659.78;;;14.32;54.37
75401;BME280;63974;47.538;18.972;2023-03-14T17:21:08;98669.19;;;14.22;56.15
75401;BME280;63974;47.538;18.972;2023-03-14T17:24:11;98681.94;;;14.18;56.41